createdAt,value
2023-02-04T00:00:30.934Z,101955.56
2023-02-04T00:02:59.031Z,101959.94
2023-02-04T00:05:26.946Z,101959.31
2023-02-04T00:07:54.703Z,101961.97
2023-02-04T00:10:22.518Z,101966.09
2023-02-04T00:12:50.398Z,101977.31
2023-02-04T00:15:18.122Z,101972.84
2023-02-04T00:17:47.250Z,101983.72
2023-02-04T00:20:15.327Z,101978.16
2023-02-04T00:22:42.998Z,101985.28
2023-02-04T00:25:10.780Z,101990.59
2023-02-04T00:27:39.343Z,101993.97
2023-02-04T00:30:08.366Z,101994.84
2023-02-04T00:32:36.341Z,102003.66
2023-02-04T00:35:05.868Z,102003.75
2023-02-04T00:37:34.027Z,102015.34
2023-02-04T00:40:01.942Z,102007.38
2023-02-04T00:42:29.876Z,102017.28
2023-02-04T00:44:57.802Z,102029.59
2023-02-04T00:47:25.657Z,102024.97
2023-02-04T00:49:53.455Z,102014.59
2023-02-04T00:52:22.559Z,102006.13
2023-02-04T00:54:50.318Z,102005.16
2023-02-04T00:57:18.294Z,102009.03
2023-02-04T00:59:46.162Z,102003.72
2023-02-04T01:02:14.037Z,102006.38
2023-02-04T01:04:41.898Z,102004.56
2023-02-04T01:07:09.759Z,102009.88
2023-02-04T01:09:38.930Z,102016.91
2023-02-04T01:12:06.802Z,102012.44
2023-02-04T01:14:34.571Z,102027.41
2023-02-04T01:17:02.378Z,102026.44
2023-02-04T01:19:30.186Z,102026.56
2023-02-04T01:21:57.993Z,102032.84
2023-02-04T01:24:25.661Z,102044.31
2023-02-04T01:26:54.753Z,102041.75
2023-02-04T01:29:22.514Z,102049.88
2023-02-04T01:31:50.256Z,102041.06
2023-02-04T01:34:18.047Z,102043.72
2023-02-04T01:36:45.817Z,102040.22
2023-02-04T01:39:13.838Z,102037.66
2023-02-04T01:41:41.958Z,102037.66
2023-02-04T01:44:11.552Z,102051.69
2023-02-04T01:46:39.339Z,102046.47
2023-02-04T01:49:07.825Z,102059.03
2023-02-04T01:51:37.127Z,102061.56
2023-02-04T01:54:05.491Z,102068.91
2023-02-04T01:56:33.571Z,102070.59
2023-02-04T01:59:01.418Z,102072.41
2023-02-04T02:01:39.057Z,102068.41
2023-02-04T02:04:06.995Z,102064.16
2023-02-04T02:06:35.892Z,102068.41
2023-02-04T02:09:03.779Z,102066.72
2023-02-04T02:11:31.731Z,102068.41
2023-02-04T02:13:59.809Z,102075.44
2023-02-04T02:16:27.856Z,102073.84
2023-02-04T02:18:57.805Z,102078.19
2023-02-04T02:21:33.335Z,102082.53
2023-02-04T02:24:29.991Z,102083.38
2023-02-04T02:26:59.684Z,102090.41
2023-02-04T02:29:28.280Z,102093.28
2023-02-04T02:31:58.330Z,102087.97
2023-02-04T02:34:27.397Z,102093.50
2023-02-04T02:36:55.865Z,102102.19
2023-02-04T02:39:26.155Z,102097.72
2023-02-04T02:41:54.108Z,102091.69
2023-02-04T02:44:22.174Z,102085.41
2023-02-04T02:46:50.264Z,102095.09
2023-02-04T02:49:20.219Z,102088.19
2023-02-04T02:51:49.261Z,102091.09
2023-02-04T02:54:24.153Z,102091.94
2023-02-04T02:56:54.725Z,102089.38
2023-02-04T02:59:22.609Z,102094.69
2023-02-04T03:01:54.705Z,102094.06
2023-02-04T03:04:23.627Z,102100.31
2023-02-04T03:06:52.129Z,102107.56
2023-02-04T03:09:20.916Z,102103.22
2023-02-04T03:11:49.502Z,102109.38
2023-02-04T03:14:19.081Z,102113.00
2023-02-04T03:16:48.470Z,102114.06
2023-02-04T03:19:16.344Z,102123.84
2023-02-04T03:21:44.555Z,102116.31
2023-02-04T03:24:12.844Z,102125.66
2023-02-04T03:26:40.792Z,102123.00
2023-02-04T03:29:09.978Z,102117.00
2023-02-04T03:31:39.183Z,102113.13
2023-02-04T03:34:07.232Z,102128.84
2023-02-04T03:36:36.489Z,102128.47
2023-02-04T03:39:04.427Z,102140.25
2023-02-04T03:41:32.084Z,102137.47
2023-02-04T03:43:59.661Z,102138.63
2023-02-04T03:46:28.647Z,102138.88
2023-02-04T03:48:57.685Z,102138.63
2023-02-04T03:51:25.407Z,102136.97
2023-02-04T03:53:52.989Z,102139.31
2023-02-04T03:56:20.605Z,102143.75
2023-02-04T03:58:48.256Z,102144.00
2023-02-04T04:01:15.972Z,102133.81
2023-02-04T04:03:43.596Z,102143.34
2023-02-04T04:06:12.542Z,102151.31
2023-02-04T04:08:40.435Z,102151.56
2023-02-04T04:11:08.116Z,102148.91
2023-02-04T04:13:35.717Z,102142.84
2023-02-04T04:16:04.872Z,102141.88
2023-02-04T04:18:32.754Z,102144.44
2023-02-04T04:21:00.478Z,102151.22
2023-02-04T04:23:29.551Z,102164.38
2023-02-04T04:25:57.187Z,102158.22
2023-02-04T04:28:24.883Z,102158.97
2023-02-04T04:30:52.580Z,102158.13
2023-02-04T04:33:20.276Z,102161.63
2023-02-04T04:35:47.935Z,102166.94
2023-02-04T04:38:15.629Z,102182.19
2023-02-04T04:40:44.592Z,102192.06
2023-02-04T04:43:12.264Z,102196.00
2023-02-04T04:45:39.919Z,102190.59
2023-02-04T04:48:07.586Z,102202.16
2023-02-04T04:50:35.221Z,102201.22
2023-02-04T04:53:03.135Z,102198.56
2023-02-04T04:55:30.747Z,102194.84
2023-02-04T04:57:59.692Z,102181.69
2023-02-04T05:00:27.457Z,102175.44
2023-02-04T05:02:55.354Z,102179.03
2023-02-04T05:05:23.007Z,102186.16
2023-02-04T05:07:50.644Z,102201.22
2023-02-04T05:10:18.605Z,102196.00
2023-02-04T05:12:46.215Z,102192.00
2023-02-04T05:15:15.291Z,102196.66
2023-02-04T05:17:42.941Z,102200.81
2023-02-04T05:20:11.416Z,102209.38
2023-02-04T05:22:39.013Z,102212.13
2023-02-04T05:25:07.321Z,102209.63
2023-02-04T05:27:34.935Z,102208.00
2023-02-04T05:30:02.614Z,102218.81
2023-02-04T05:32:31.661Z,102228.69
2023-02-04T05:34:59.260Z,102230.50
2023-02-04T05:37:26.933Z,102236.53
2023-02-04T05:39:54.557Z,102240.78
2023-02-04T05:42:22.169Z,102244.38
2023-02-04T05:44:50.040Z,102246.31
2023-02-04T05:47:18.748Z,102242.91
2023-02-04T05:49:47.744Z,102246.31
2023-02-04T05:52:15.399Z,102241.84
2023-02-04T05:54:43.044Z,102248.09
2023-02-04T05:57:10.622Z,102253.50
2023-02-04T05:59:38.377Z,102256.47
2023-02-04T06:02:06.004Z,102262.94
2023-02-04T06:04:33.682Z,102265.78
2023-02-04T06:07:03.308Z,102277.25
2023-02-04T06:09:30.938Z,102278.41
2023-02-04T06:11:58.565Z,102285.63
2023-02-04T06:14:26.270Z,102286.75
2023-02-04T06:16:54.017Z,102283.38
2023-02-04T06:19:21.708Z,102288.78
2023-02-04T06:21:49.515Z,102287.00
2023-02-04T06:24:18.434Z,102293.25
2023-02-04T06:26:46.101Z,102291.34
2023-02-04T06:29:13.791Z,102289.53
2023-02-04T06:31:41.566Z,102298.44
2023-02-04T06:34:09.265Z,102287.84
2023-02-04T06:36:36.892Z,102297.50
2023-02-04T06:39:04.667Z,102287.72
2023-02-04T06:41:33.675Z,102301.19
2023-02-04T06:44:01.345Z,102309.50
2023-02-04T06:46:29.009Z,102306.97
2023-02-04T06:48:57.134Z,102311.91
2023-02-04T06:51:24.779Z,102312.97
2023-02-04T06:53:52.591Z,102315.63
2023-02-04T06:56:20.212Z,102305.63
2023-02-04T06:58:49.209Z,102308.00
2023-02-04T07:01:16.904Z,102317.66
2023-02-04T07:03:44.526Z,102309.50
2023-02-04T07:06:12.210Z,102319.91
2023-02-04T07:08:39.866Z,102329.56
2023-02-04T07:11:07.704Z,102336.00
2023-02-04T07:13:35.400Z,102330.69
2023-02-04T07:16:04.425Z,102342.91
2023-02-04T07:18:32.220Z,102339.31
2023-02-04T07:21:00.011Z,102336.56
2023-02-04T07:23:28.574Z,102346.16
2023-02-04T07:25:57.385Z,102350.69
2023-02-04T07:28:25.149Z,102345.09
2023-02-04T07:30:52.905Z,102356.25
2023-02-04T07:33:21.975Z,102356.03
2023-02-04T07:35:49.609Z,102362.09
2023-02-04T07:38:17.233Z,102365.50
2023-02-04T07:40:44.893Z,102369.03
2023-02-04T07:43:12.749Z,102369.88
2023-02-04T07:45:40.412Z,102373.47
2023-02-04T07:48:08.087Z,102374.41
2023-02-04T07:50:37.219Z,102368.25
2023-02-04T07:53:05.087Z,102370.63
2023-02-04T07:55:32.853Z,102378.38
2023-02-04T07:58:00.594Z,102376.56
2023-02-04T08:00:28.425Z,102380.81
2023-02-04T08:02:56.203Z,102387.41
2023-02-04T08:05:23.954Z,102381.16
2023-02-04T08:07:52.972Z,102387.41
2023-02-04T08:10:21.427Z,102394.25
2023-02-04T08:12:49.190Z,102401.03
2023-02-04T08:15:16.884Z,102400.09
2023-02-04T08:17:44.503Z,102406.91
2023-02-04T08:20:13.125Z,102411.97
2023-02-04T08:22:41.090Z,102417.94
2023-02-04T08:25:11.802Z,102424.00
2023-02-04T08:27:39.688Z,102414.13
2023-02-04T08:30:08.547Z,102425.50
2023-02-04T08:32:36.639Z,102429.75
2023-02-04T08:35:06.456Z,102432.94
2023-02-04T08:37:34.809Z,102439.56
2023-02-04T08:40:02.663Z,102450.53
2023-02-04T08:42:31.995Z,102447.97
2023-02-04T08:44:59.804Z,102447.44
2023-02-04T08:47:27.780Z,102448.09
2023-02-04T08:49:55.625Z,102456.41
2023-02-04T08:52:23.587Z,102452.69
2023-02-04T08:54:51.397Z,102456.41
2023-02-04T08:57:19.370Z,102455.66
2023-02-04T08:59:48.369Z,102458.31
2023-02-04T09:02:16.200Z,102455.34
2023-02-04T09:04:44.096Z,102463.84
2023-02-04T09:07:12.063Z,102465.97
2023-02-04T09:09:39.861Z,102463.31
2023-02-04T09:12:07.879Z,102467.47
2023-02-04T09:14:35.737Z,102470.88
2023-02-04T09:17:05.822Z,102473.44
2023-02-04T09:19:33.649Z,102472.25
2023-02-04T09:22:01.587Z,102480.13
2023-02-04T09:24:29.256Z,102477.66
2023-02-04T09:26:57.024Z,102475.34
2023-02-04T09:29:24.843Z,102471.09
2023-02-04T09:31:52.527Z,102471.09
2023-02-04T09:34:21.880Z,102479.56
2023-02-04T09:36:49.754Z,102479.28
2023-02-04T09:39:17.655Z,102489.38
2023-02-04T09:41:45.466Z,102497.66
2023-02-04T09:44:17.695Z,102489.28
2023-02-04T09:46:49.575Z,102494.50
2023-02-04T09:49:21.775Z,102486.56
2023-02-04T09:51:51.116Z,102498.66
2023-02-04T09:54:20.988Z,102503.94
2023-02-04T09:56:49.140Z,102501.44
2023-02-04T09:59:19.897Z,102503.66
2023-02-04T10:01:49.692Z,102504.09
2023-02-04T10:04:17.599Z,102506.50
2023-02-04T10:06:46.674Z,102508.78
2023-02-04T10:09:17.037Z,102514.66
2023-02-04T10:11:48.119Z,102511.84
2023-02-04T10:14:19.221Z,102513.81
2023-02-04T10:16:53.502Z,102519.19
2023-02-04T10:19:21.235Z,102520.63
2023-02-04T10:21:50.734Z,102521.38
2023-02-04T10:24:21.154Z,102517.13
2023-02-04T10:26:49.125Z,102521.59
2023-02-04T10:29:19.110Z,102529.31
2023-02-04T10:31:48.727Z,102523.81
2023-02-04T10:34:19.133Z,102528.25
2023-02-04T10:36:48.846Z,102533.31
2023-02-04T10:39:19.409Z,102530.22
2023-02-04T10:41:50.044Z,102528.53
2023-02-04T10:44:19.706Z,102529.91
2023-02-04T10:46:47.340Z,102539.75
2023-02-04T10:49:23.187Z,102528.31
2023-02-04T10:51:52.747Z,102531.75
2023-02-04T10:54:30.902Z,102533.34
2023-02-04T10:57:00.318Z,102527.91
2023-02-04T10:59:29.076Z,102532.88
2023-02-04T11:01:58.589Z,102520.38
2023-02-04T11:04:28.699Z,102527.44
2023-02-04T11:06:56.460Z,102517.72
2023-02-04T11:09:25.638Z,102524.50
2023-02-04T11:11:53.436Z,102519.03
2023-02-04T11:14:28.157Z,102522.28
2023-02-04T11:17:00.537Z,102525.06
2023-02-04T11:19:37.795Z,102516.72
2023-02-04T11:22:20.905Z,102523.06
2023-02-04T11:24:50.201Z,102520.00
2023-02-04T11:27:26.775Z,102524.16
2023-02-04T11:30:06.566Z,102525.31
2023-02-04T11:32:37.856Z,102523.41
2023-02-04T11:35:26.221Z,102528.63
2023-02-04T11:37:55.767Z,102526.41
2023-02-04T11:40:33.250Z,102528.31
2023-02-04T11:43:03.534Z,102526.59
2023-02-04T11:45:34.933Z,102533.63
2023-02-04T11:48:04.800Z,102530.03
2023-02-04T11:50:35.683Z,102536.41
2023-02-04T11:53:03.835Z,102537.22
2023-02-04T11:55:36.575Z,102540.47
2023-02-04T11:58:05.459Z,102524.03
2023-02-04T12:00:34.633Z,102525.69
2023-02-04T12:03:06.204Z,102522.97
2023-02-04T12:05:40.946Z,102521.19
2023-02-04T12:08:13.439Z,102518.03
2023-02-04T12:10:49.230Z,102515.34
2023-02-04T12:13:20.560Z,102510.63
2023-02-04T12:15:56.556Z,102508.34
2023-02-04T12:18:24.259Z,102501.94
2023-02-04T12:20:51.872Z,102512.66
2023-02-04T12:23:19.546Z,102508.44
2023-02-04T12:25:48.981Z,102512.66
2023-02-04T12:28:16.761Z,102519.50
2023-02-04T12:30:44.530Z,102520.19
2023-02-04T12:33:14.721Z,102520.34
2023-02-04T12:35:42.836Z,102525.31
2023-02-04T12:38:11.004Z,102530.81
2023-02-04T12:40:39.797Z,102522.66
2023-02-04T12:43:09.622Z,102522.38
2023-02-04T12:45:37.905Z,102519.34
2023-02-04T12:48:06.023Z,102522.34
2023-02-04T12:50:33.926Z,102530.47
2023-02-04T12:53:01.885Z,102528.03
2023-02-04T12:55:31.117Z,102529.38
2023-02-04T12:57:59.104Z,102537.38
2023-02-04T13:00:28.490Z,102537.34
2023-02-04T13:02:59.209Z,102534.00
2023-02-04T13:05:27.378Z,102540.91
2023-02-04T13:07:55.749Z,102534.69
2023-02-04T13:10:24.033Z,102538.31
2023-02-04T13:12:51.796Z,102530.28
2023-02-04T13:15:19.988Z,102533.03
2023-02-04T13:17:49.667Z,102536.31
2023-02-04T13:20:17.790Z,102524.47
2023-02-04T13:22:45.484Z,102529.81
2023-02-04T13:25:13.649Z,102532.97
2023-02-04T13:27:41.912Z,102529.84
2023-02-04T13:30:13.008Z,102538.97
2023-02-04T13:32:41.068Z,102536.91
2023-02-04T13:35:10.494Z,102535.28
2023-02-04T13:37:38.651Z,102528.84
2023-02-04T13:40:07.895Z,102535.53
2023-02-04T13:42:35.836Z,102527.88
2023-02-04T13:45:07.826Z,102525.91
2023-02-04T13:47:35.830Z,102535.41
2023-02-04T13:50:03.906Z,102526.81
2023-02-04T13:52:34.468Z,102530.69
2023-02-04T13:55:02.494Z,102545.91
2023-02-04T13:57:30.983Z,102536.84
2023-02-04T13:59:59.050Z,102539.44
2023-02-04T14:02:27.052Z,102531.81
2023-02-04T14:04:54.890Z,102529.81
2023-02-04T14:07:22.716Z,102531.28
2023-02-04T14:09:51.852Z,102532.38
2023-02-04T14:12:19.772Z,102548.78
2023-02-04T14:14:48.035Z,102544.56
2023-02-04T14:17:16.143Z,102554.78
2023-02-04T14:19:43.955Z,102546.84
2023-02-04T14:22:13.222Z,102548.31
2023-02-04T14:24:42.678Z,102549.69
2023-02-04T14:27:12.270Z,102553.81
2023-02-04T14:29:40.320Z,102555.13
2023-02-04T14:32:08.495Z,102551.53
2023-02-04T14:34:36.593Z,102549.00
2023-02-04T14:37:04.561Z,102552.13
2023-02-04T14:39:32.231Z,102547.66
2023-02-04T14:42:00.669Z,102543.94
2023-02-04T14:44:29.721Z,102539.56
2023-02-04T14:46:57.367Z,102549.16
2023-02-04T14:49:25.696Z,102546.41
2023-02-04T14:51:53.376Z,102543.00
2023-02-04T14:54:21.183Z,102545.09
2023-02-04T14:56:50.407Z,102545.22
2023-02-04T14:59:18.222Z,102548.94
2023-02-04T15:01:47.544Z,102548.16
2023-02-04T15:04:15.822Z,102545.06
2023-02-04T15:06:43.788Z,102558.03
2023-02-04T15:09:11.630Z,102554.53
2023-02-04T15:11:39.417Z,102561.44
2023-02-04T15:14:07.281Z,102554.66
2023-02-04T15:16:35.412Z,102557.41
2023-02-04T15:19:04.738Z,102559.09
2023-02-04T15:21:32.490Z,102551.53
2023-02-04T15:24:00.140Z,102545.66
2023-02-04T15:26:27.847Z,102548.44
2023-02-04T15:28:56.040Z,102551.97
2023-02-04T15:31:24.341Z,102558.84
2023-02-04T15:33:52.326Z,102550.25
2023-02-04T15:36:21.453Z,102546.94
2023-02-04T15:38:49.404Z,102553.97
2023-02-04T15:41:17.164Z,102552.25
2023-02-04T15:43:45.139Z,102555.97
2023-02-04T15:46:13.046Z,102555.97
2023-02-04T15:48:40.834Z,102557.91
2023-02-04T15:51:08.621Z,102561.69
2023-02-04T15:53:37.781Z,102569.47
2023-02-04T15:56:06.307Z,102565.63
2023-02-04T15:58:33.991Z,102569.72
2023-02-04T16:01:02.245Z,102581.09
2023-02-04T16:03:29.996Z,102586.63
2023-02-04T16:05:57.794Z,102584.34
2023-02-04T16:08:25.741Z,102589.13
2023-02-04T16:10:55.104Z,102587.59
2023-02-04T16:13:22.917Z,102586.09
2023-02-04T16:15:50.671Z,102587.56
2023-02-04T16:18:18.534Z,102581.38
2023-02-04T16:20:46.563Z,102585.84
2023-02-04T16:23:14.378Z,102596.56
2023-02-04T16:25:42.179Z,102603.56
2023-02-04T16:28:11.555Z,102601.59
2023-02-04T16:30:39.844Z,102600.91
2023-02-04T16:33:07.884Z,102598.66
2023-02-04T16:35:57.568Z,102606.81
2023-02-04T16:38:25.570Z,102614.97
2023-02-04T16:40:53.440Z,102614.00
2023-02-04T16:43:23.353Z,102614.00
2023-02-04T16:45:51.591Z,102628.22
2023-02-04T16:48:19.447Z,102615.16
2023-02-04T16:50:47.221Z,102627.59
2023-02-04T16:53:16.232Z,102623.13
2023-02-04T16:55:44.647Z,102621.44
2023-02-04T16:58:12.891Z,102625.88
2023-02-04T17:00:44.071Z,102625.13
2023-02-04T17:03:13.087Z,102629.28
2023-02-04T17:05:41.874Z,102629.09
2023-02-04T17:08:12.611Z,102623.03
2023-02-04T17:10:58.497Z,102634.59
2023-02-04T17:13:26.247Z,102628.53
2023-02-04T17:16:00.486Z,102633.66
2023-02-04T17:18:29.603Z,102631.00
2023-02-04T17:20:58.076Z,102630.16
2023-02-04T17:23:27.059Z,102631.59
2023-02-04T17:25:54.948Z,102634.50
2023-02-04T17:28:23.324Z,102641.69
2023-02-04T17:30:51.184Z,102638.00
2023-02-04T17:33:20.534Z,102634.31
2023-02-04T17:35:48.644Z,102636.03
2023-02-04T17:38:16.434Z,102626.47
2023-02-04T17:40:44.187Z,102627.41
2023-02-04T17:43:11.897Z,102626.63
2023-02-04T17:45:39.635Z,102629.41
2023-02-04T17:48:07.348Z,102635.66
2023-02-04T17:53:10.606Z,102635.06
2023-02-04T17:55:39.831Z,102638.03
2023-02-04T17:58:13.960Z,102638.78
2023-02-04T18:00:43.065Z,102644.38
2023-02-04T18:03:13.737Z,102649.84
2023-02-04T18:05:46.181Z,102650.91
2023-02-04T18:08:16.316Z,102645.78
2023-02-04T18:10:45.754Z,102650.41
2023-02-04T18:13:16.378Z,102644.00
2023-02-04T18:15:47.210Z,102645.06
2023-02-04T18:18:23.740Z,102641.47
2023-02-04T18:20:59.428Z,102637.13
2023-02-04T18:23:30.113Z,102650.47
2023-02-04T18:26:06.153Z,102654.13
2023-02-04T18:28:35.420Z,102656.13
2023-02-04T18:31:04.123Z,102650.94
2023-02-04T18:33:34.443Z,102660.41
2023-02-04T18:36:03.523Z,102659.56
2023-02-04T18:38:37.245Z,102655.47
2023-02-04T18:41:22.716Z,102653.75
2023-02-04T18:43:52.867Z,102646.78
2023-02-04T18:46:25.147Z,102659.66
2023-02-04T18:49:20.259Z,102663.06
2023-02-04T18:51:50.786Z,102664.56
2023-02-04T18:54:30.898Z,102656.69
2023-02-04T18:57:35.948Z,102658.72
2023-02-04T19:00:25.358Z,102663.16
2023-02-04T19:02:56.546Z,102657.75
2023-02-04T19:05:29.906Z,102658.50
2023-02-04T19:08:19.963Z,102662.78
2023-02-04T19:10:48.551Z,102670.66
2023-02-04T19:13:20.519Z,102663.63
2023-02-04T19:15:58.842Z,102671.75
2023-02-04T19:18:28.866Z,102667.41
2023-02-04T19:20:57.026Z,102669.31
2023-02-04T19:23:26.229Z,102668.63
2023-02-04T19:25:54.230Z,102681.97
2023-02-04T19:28:29.020Z,102675.94
2023-02-04T19:31:01.877Z,102675.31
2023-02-04T19:33:34.393Z,102679.28
2023-02-04T19:36:16.265Z,102669.47
2023-02-04T19:38:46.456Z,102673.91
2023-02-04T19:41:25.545Z,102667.81
2023-02-04T19:43:58.315Z,102684.47
2023-02-04T19:46:26.795Z,102669.59
2023-02-04T19:48:54.679Z,102680.06
2023-02-04T19:51:27.094Z,102678.88
2023-02-04T19:54:02.665Z,102680.75
2023-02-04T19:56:34.924Z,102672.91
2023-02-04T19:59:23.543Z,102671.63
2023-02-04T20:01:59.644Z,102671.19
2023-02-04T20:04:33.532Z,102675.56
2023-02-04T20:07:01.435Z,102675.31
2023-02-04T20:09:31.018Z,102688.91
2023-02-04T20:12:05.734Z,102685.53
2023-02-04T20:14:49.316Z,102691.19
2023-02-04T20:17:42.692Z,102692.91
2023-02-04T20:20:26.168Z,102696.31
2023-02-04T20:22:55.968Z,102693.84
2023-02-04T20:25:44.987Z,102688.88
2023-02-04T20:28:26.708Z,102693.66
2023-02-04T20:30:56.081Z,102695.34
2023-02-04T20:33:29.140Z,102703.13
2023-02-04T20:36:26.537Z,102691.44
2023-02-04T20:39:07.395Z,102701.94
2023-02-04T20:41:39.010Z,102708.53
2023-02-04T20:44:14.674Z,102705.09
2023-02-04T20:46:42.674Z,102724.50
2023-02-04T20:49:24.008Z,102720.25
2023-02-04T20:51:52.876Z,102715.44
2023-02-04T20:54:20.635Z,102715.25
2023-02-04T20:56:49.748Z,102727.56
2023-02-04T20:59:31.050Z,102726.19
2023-02-04T21:01:58.862Z,102725.00
2023-02-04T21:04:30.760Z,102721.59
2023-02-04T21:07:00.976Z,102712.88
2023-02-04T21:09:31.295Z,102724.50
2023-02-04T21:12:02.254Z,102723.97
2023-02-04T21:14:30.664Z,102727.13
2023-02-04T21:16:58.489Z,102729.41
2023-02-04T21:19:27.829Z,102734.09
2023-02-04T21:21:56.405Z,102731.34
2023-02-04T21:24:24.696Z,102735.78
2023-02-04T21:26:52.962Z,102739.66
2023-02-04T21:29:22.108Z,102739.41
2023-02-04T21:31:49.802Z,102730.31
2023-02-04T21:34:17.826Z,102732.44
2023-02-04T21:36:45.823Z,102720.44
2023-02-04T21:39:13.454Z,102722.16
2023-02-04T21:41:41.277Z,102721.00
2023-02-04T21:44:09.090Z,102720.81
2023-02-04T21:46:38.136Z,102725.25
2023-02-04T21:49:08.236Z,102718.34
2023-02-04T21:51:36.021Z,102715.94
2023-02-04T21:54:05.659Z,102721.78
2023-02-04T21:56:34.855Z,102718.00
2023-02-04T21:59:02.562Z,102723.78
2023-02-04T22:01:30.195Z,102722.63
2023-02-04T22:03:59.376Z,102723.16
2023-02-04T22:06:27.105Z,102728.22
2023-02-04T22:08:54.765Z,102728.81
2023-02-04T22:11:22.729Z,102730.16
2023-02-04T22:13:50.415Z,102732.56
2023-02-04T22:16:18.053Z,102729.94
2023-02-04T22:18:46.575Z,102729.47
2023-02-04T22:21:15.556Z,102728.22
2023-02-04T22:23:43.284Z,102726.75
2023-02-04T22:26:10.949Z,102721.16
2023-02-04T22:28:38.600Z,102724.72
2023-02-04T22:31:08.321Z,102720.50
2023-02-04T22:33:36.602Z,102719.50
2023-02-04T22:36:04.663Z,102722.28
2023-02-04T22:38:35.319Z,102713.16
2023-02-04T22:41:02.973Z,102710.25
2023-02-04T22:43:30.819Z,102711.44
2023-02-04T22:45:59.092Z,102708.94
2023-02-04T22:48:26.913Z,102707.28
2023-02-04T22:50:55.429Z,102710.16
2023-02-04T22:53:23.060Z,102708.91
2023-02-04T22:55:52.239Z,102707.72
2023-02-04T22:58:20.094Z,102723.78
2023-02-04T23:00:47.914Z,102717.78
2023-02-04T23:03:18.376Z,102713.38
2023-02-04T23:05:48.269Z,102710.13
2023-02-04T23:08:17.835Z,102717.31
2023-02-04T23:10:45.720Z,102718.84
2023-02-04T23:13:16.512Z,102717.38
2023-02-04T23:15:44.749Z,102716.13
2023-02-04T23:18:12.957Z,102721.53
2023-02-04T23:20:42.030Z,102717.41
2023-02-04T23:23:10.535Z,102723.31
2023-02-04T23:25:38.354Z,102727.53
2023-02-04T23:28:06.459Z,102725.47
2023-02-04T23:30:35.752Z,102739.50
2023-02-04T23:33:03.500Z,102737.50
2023-02-04T23:35:32.057Z,102744.78
2023-02-04T23:37:59.972Z,102735.78
2023-02-04T23:40:27.781Z,102739.94
2023-02-04T23:42:55.515Z,102743.38
2023-02-04T23:45:23.313Z,102739.72
2023-02-04T23:47:52.474Z,102735.47
2023-02-04T23:50:20.306Z,102731.38
2023-02-04T23:52:50.317Z,102744.78
2023-02-04T23:55:18.710Z,102737.84
2023-02-04T23:57:49.444Z,102734.28
